createdAt,value
2019-01-13T00:00:54.927Z,16.20
2019-01-13T00:03:24.385Z,16.50
2019-01-13T00:05:53.853Z,15.77
2019-01-13T00:08:23.377Z,16.67
2019-01-13T00:10:52.844Z,15.70
2019-01-13T00:13:22.320Z,15.70
2019-01-13T00:15:51.845Z,16.00
2019-01-13T00:18:21.312Z,16.10
2019-01-13T00:20:50.787Z,15.03
2019-01-13T00:23:20.296Z,14.97
2019-01-13T00:25:51.619Z,15.40
2019-01-13T00:28:21.084Z,16.47
2019-01-13T00:30:50.587Z,14.77
2019-01-13T00:33:20.071Z,15.50
2019-01-13T00:35:49.557Z,15.53
2019-01-13T00:38:19.056Z,13.87
2019-01-13T00:40:48.656Z,16.27
2019-01-13T00:43:18.134Z,15.37
2019-01-13T00:45:47.636Z,13.93
2019-01-13T00:48:17.111Z,16.50
2019-01-13T00:50:46.585Z,16.67
2019-01-13T00:53:16.196Z,16.80
2019-01-13T00:55:45.690Z,15.97
2019-01-13T00:58:15.263Z,17.00
2019-01-13T01:00:44.875Z,16.50
2019-01-13T01:03:14.343Z,16.43
2019-01-13T01:05:43.920Z,14.27
2019-01-13T01:08:14.030Z,16.07
2019-01-13T01:10:43.508Z,15.80
2019-01-13T01:13:13.013Z,15.10
2019-01-13T01:15:42.546Z,14.03
2019-01-13T01:18:12.023Z,13.93
2019-01-13T01:20:41.502Z,13.03
2019-01-13T01:23:11.011Z,13.53
2019-01-13T01:25:40.523Z,14.00
2019-01-13T01:28:10.002Z,14.10
2019-01-13T01:30:39.514Z,13.30
2019-01-13T01:33:28.350Z,13.50
2019-01-13T01:35:57.853Z,14.00
2019-01-13T01:38:27.320Z,14.07
2019-01-13T01:40:56.785Z,14.90
2019-01-13T01:43:26.310Z,13.13
2019-01-13T01:45:55.731Z,13.43
2019-01-13T01:48:25.181Z,13.63
2019-01-13T01:50:54.694Z,13.47
2019-01-13T01:53:24.371Z,13.00
2019-01-13T01:55:53.864Z,13.80
2019-01-13T01:58:23.359Z,13.77
2019-01-13T02:00:52.851Z,12.63
2019-01-13T02:03:22.328Z,11.47
2019-01-13T02:05:51.823Z,11.93
2019-01-13T02:08:23.253Z,11.20
2019-01-13T02:10:52.755Z,10.80
2019-01-13T02:13:22.239Z,11.53
2019-01-13T02:15:51.713Z,10.60
2019-01-13T02:18:21.202Z,10.20
2019-01-13T02:20:50.707Z,10.73
2019-01-13T02:23:20.184Z,11.13
2019-01-13T02:25:49.793Z,10.80
2019-01-13T02:28:19.390Z,11.37
2019-01-13T02:30:49.593Z,10.60
2019-01-13T02:33:19.226Z,10.50
2019-01-13T02:35:48.746Z,10.40
2019-01-13T02:38:18.173Z,9.43
2019-01-13T02:40:47.676Z,10.23
2019-01-13T02:43:17.153Z,8.30
2019-01-13T02:45:46.801Z,8.40
2019-01-13T02:48:16.267Z,8.00
2019-01-13T02:50:45.767Z,8.80
2019-01-13T02:53:15.322Z,8.90
2019-01-13T02:55:44.843Z,7.97
2019-01-13T02:58:14.392Z,9.37
2019-01-13T03:00:43.902Z,9.10
2019-01-13T03:03:13.385Z,9.30
2019-01-13T03:05:42.891Z,8.33
2019-01-13T03:08:12.371Z,8.67
2019-01-13T03:10:41.782Z,9.50
2019-01-13T03:13:11.311Z,8.47
2019-01-13T03:15:40.779Z,8.50
2019-01-13T03:18:10.649Z,9.33
2019-01-13T03:20:40.192Z,12.50
2019-01-13T03:23:09.665Z,15.97
2019-01-13T03:25:39.138Z,14.67
2019-01-13T03:28:08.651Z,13.90
2019-01-13T03:30:38.135Z,13.47
2019-01-13T03:33:07.579Z,9.50
2019-01-13T03:35:37.119Z,11.60
2019-01-13T03:38:06.589Z,12.47
2019-01-13T03:40:55.457Z,14.47
2019-01-13T03:43:24.946Z,16.67
2019-01-13T03:45:54.416Z,16.33
2019-01-13T03:48:23.933Z,15.47
2019-01-13T03:50:53.377Z,9.67
2019-01-13T03:53:22.848Z,8.33
2019-01-13T03:55:52.343Z,7.83
2019-01-13T03:58:21.809Z,7.37
2019-01-13T04:00:51.327Z,5.80
2019-01-13T04:03:20.826Z,6.90
2019-01-13T04:05:50.405Z,5.63
2019-01-13T04:08:19.893Z,4.57
2019-01-13T04:10:49.389Z,5.07
2019-01-13T04:13:18.850Z,4.10
2019-01-13T04:15:48.544Z,4.33
2019-01-13T04:18:18.017Z,4.43
2019-01-13T04:20:47.496Z,4.30
2019-01-13T04:23:17.044Z,3.90
2019-01-13T04:25:46.470Z,4.00
2019-01-13T04:28:15.948Z,3.10
2019-01-13T04:30:45.450Z,3.03
2019-01-13T04:33:14.906Z,3.30
2019-01-13T04:35:44.373Z,3.70
2019-01-13T04:38:13.862Z,2.90
2019-01-13T04:40:43.324Z,2.67
2019-01-13T04:43:12.794Z,2.37
2019-01-13T04:45:42.282Z,2.70
2019-01-13T04:48:11.860Z,3.23
2019-01-13T04:50:41.319Z,3.20
2019-01-13T04:53:10.809Z,2.47
2019-01-13T04:55:40.290Z,2.30
2019-01-13T04:58:09.743Z,2.43
2019-01-13T05:00:39.237Z,2.10
2019-01-13T05:03:08.717Z,2.27
2019-01-13T05:05:38.206Z,2.23
2019-01-13T05:08:07.609Z,2.40
2019-01-13T05:10:37.179Z,2.20
2019-01-13T05:13:06.640Z,2.70
2019-01-13T05:15:36.130Z,2.63
2019-01-13T05:18:05.607Z,2.90
2019-01-13T05:20:35.072Z,2.20
2019-01-13T05:23:04.564Z,2.70
2019-01-13T05:25:34.034Z,2.37
2019-01-13T05:28:03.507Z,2.30
2019-01-13T05:30:32.990Z,1.73
2019-01-13T05:33:02.471Z,1.90
2019-01-13T05:35:31.945Z,2.03
2019-01-13T05:38:01.450Z,1.77
2019-01-13T05:40:30.910Z,1.93
2019-01-13T05:43:00.385Z,1.80
2019-01-13T05:45:29.995Z,2.73
2019-01-13T05:47:59.460Z,1.97
2019-01-13T05:50:28.934Z,1.50
2019-01-13T05:52:58.645Z,1.70
2019-01-13T05:55:28.420Z,2.60
2019-01-13T05:57:57.987Z,3.60
2019-01-13T06:00:29.073Z,7.53
2019-01-13T06:02:58.594Z,13.27
2019-01-13T06:05:28.059Z,17.87
2019-01-13T06:07:57.570Z,18.33
2019-01-13T06:10:27.053Z,20.93
2019-01-13T06:12:56.571Z,19.60
2019-01-13T06:15:26.069Z,22.10
2019-01-13T06:17:55.631Z,20.50
2019-01-13T06:20:25.188Z,22.70
2019-01-13T06:22:54.713Z,21.40
2019-01-13T06:25:24.193Z,21.20
2019-01-13T06:27:53.669Z,20.87
2019-01-13T06:30:23.183Z,21.23
2019-01-13T06:32:52.659Z,22.00
2019-01-13T06:35:22.142Z,21.50
2019-01-13T06:37:51.616Z,20.57
2019-01-13T06:40:21.079Z,21.80
2019-01-13T06:43:09.966Z,21.20
2019-01-13T06:45:39.444Z,21.83
2019-01-13T06:48:08.930Z,21.50
2019-01-13T06:50:38.433Z,19.47
2019-01-13T06:53:07.911Z,20.30
2019-01-13T06:55:56.423Z,21.17
2019-01-13T06:58:25.906Z,20.93
2019-01-13T07:00:55.401Z,19.67
2019-01-13T07:03:24.921Z,20.37
2019-01-13T07:05:54.385Z,21.13
2019-01-13T07:08:23.869Z,19.97
2019-01-13T07:11:12.722Z,21.03
2019-01-13T07:13:42.199Z,20.97
2019-01-13T07:16:11.671Z,20.80
2019-01-13T07:18:41.175Z,20.40
2019-01-13T07:21:10.751Z,19.60
2019-01-13T07:23:40.226Z,20.67
2019-01-13T07:26:09.730Z,21.93
2019-01-13T07:28:39.205Z,19.60
2019-01-13T07:31:08.685Z,20.53
2019-01-13T07:33:38.179Z,24.70
2019-01-13T07:36:07.652Z,21.20
2019-01-13T07:38:37.127Z,20.50
2019-01-13T07:41:06.671Z,19.50
2019-01-13T07:43:36.144Z,19.07
2019-01-13T07:46:05.613Z,20.73
2019-01-13T07:48:35.195Z,18.57
2019-01-13T07:51:04.594Z,21.43
2019-01-13T07:53:34.077Z,20.00
2019-01-13T07:56:03.799Z,18.67
2019-01-13T07:58:33.266Z,16.73
2019-01-13T08:01:03.051Z,16.43
2019-01-13T08:03:32.558Z,17.40
2019-01-13T08:06:02.037Z,19.53
2019-01-13T08:08:31.505Z,19.13
2019-01-13T08:11:00.998Z,20.33
2019-01-13T08:13:30.585Z,20.47
2019-01-13T08:16:00.065Z,21.00
2019-01-13T08:18:29.572Z,18.90
2019-01-13T08:20:59.053Z,21.47
2019-01-13T08:23:28.545Z,20.30
2019-01-13T08:25:58.081Z,20.93
2019-01-13T08:28:27.610Z,18.50
2019-01-13T08:30:57.126Z,19.27
2019-01-13T08:33:26.659Z,18.67
2019-01-13T08:35:56.119Z,19.37
2019-01-13T08:38:25.609Z,19.70
2019-01-13T08:40:55.273Z,20.10
2019-01-13T08:43:33.552Z,19.53
2019-01-13T08:46:03.096Z,20.50
2019-01-13T08:48:32.576Z,23.50
2019-01-13T08:51:02.042Z,23.97
2019-01-13T08:53:31.758Z,21.80
2019-01-13T08:56:01.244Z,21.27
2019-01-13T08:58:30.701Z,19.80
2019-01-13T09:01:00.228Z,21.60
2019-01-13T09:03:29.688Z,19.70
2019-01-13T09:05:59.174Z,19.23
2019-01-13T09:08:28.724Z,19.20
2019-01-13T09:10:58.200Z,17.77
2019-01-13T09:13:27.661Z,19.97
2019-01-13T09:15:57.157Z,19.13
2019-01-13T09:18:26.661Z,17.10
2019-01-13T09:20:56.110Z,16.00
2019-01-13T09:23:44.620Z,15.57
2019-01-13T09:26:14.087Z,18.47
2019-01-13T09:28:43.557Z,16.67
2019-01-13T09:31:13.078Z,16.10
2019-01-13T09:33:42.563Z,15.37
2019-01-13T09:36:12.051Z,15.70
2019-01-13T09:38:41.630Z,14.40
2019-01-13T09:41:11.114Z,15.00
2019-01-13T09:43:40.595Z,15.53
2019-01-13T09:46:10.097Z,12.60
2019-01-13T09:48:39.583Z,11.60
2019-01-13T09:51:09.061Z,11.57
2019-01-13T09:53:38.547Z,11.50
2019-01-13T09:56:08.016Z,11.10
2019-01-13T09:58:37.814Z,11.80
2019-01-13T10:01:07.569Z,12.10
2019-01-13T10:03:37.043Z,11.37
2019-01-13T10:06:06.510Z,11.87
2019-01-13T10:08:36.043Z,10.80
2019-01-13T10:11:05.494Z,9.67
2019-01-13T10:13:34.995Z,11.03
2019-01-13T10:16:04.427Z,10.17
2019-01-13T10:18:33.853Z,9.30
2019-01-13T10:21:03.434Z,10.17
2019-01-13T10:23:32.921Z,10.30
2019-01-13T10:26:02.392Z,10.30
2019-01-13T10:28:31.796Z,10.10
2019-01-13T10:31:03.326Z,12.50
2019-01-13T10:33:32.449Z,9.60
2019-01-13T10:36:01.919Z,9.47
2019-01-13T10:38:31.484Z,9.33
2019-01-13T10:41:00.961Z,9.27
2019-01-13T10:43:30.422Z,9.87
2019-01-13T10:45:59.927Z,9.10
2019-01-13T10:48:30.422Z,9.50
2019-01-13T10:51:02.642Z,8.30
2019-01-13T10:53:32.595Z,8.77
2019-01-13T10:56:02.069Z,7.43
2019-01-13T10:58:31.549Z,7.90
2019-01-13T11:01:01.045Z,7.50
2019-01-13T11:03:30.526Z,7.93
2019-01-13T11:06:00.003Z,9.60
2019-01-13T11:08:29.504Z,9.80
2019-01-13T11:10:58.997Z,10.13
2019-01-13T11:13:28.457Z,10.10
2019-01-13T11:15:57.985Z,9.30
2019-01-13T11:18:27.559Z,9.00
2019-01-13T11:20:57.047Z,8.93
2019-01-13T11:23:26.542Z,9.83
2019-01-13T11:25:56.033Z,9.00
2019-01-13T11:28:25.522Z,9.20
2019-01-13T11:30:55.017Z,9.70
2019-01-13T11:33:24.501Z,9.80
2019-01-13T11:35:53.969Z,9.67
2019-01-13T11:38:23.501Z,9.90
2019-01-13T11:40:52.985Z,9.80
2019-01-13T11:43:22.457Z,10.30
2019-01-13T11:45:52.081Z,9.83
2019-01-13T11:48:21.571Z,11.10
2019-01-13T11:50:51.085Z,18.70
2019-01-13T11:53:20.583Z,9.70
2019-01-13T11:55:50.062Z,12.93
2019-01-13T11:58:19.553Z,9.97
2019-01-13T12:00:49.232Z,10.93
2019-01-13T12:03:18.713Z,11.23
2019-01-13T12:05:48.193Z,10.53
2019-01-13T12:08:17.700Z,11.57
2019-01-13T12:10:47.171Z,9.67
2019-01-13T12:13:16.660Z,10.33
2019-01-13T12:15:46.188Z,10.53
2019-01-13T12:18:15.684Z,8.37
2019-01-13T12:20:45.217Z,7.80
2019-01-13T12:23:14.743Z,6.73
2019-01-13T12:25:44.212Z,7.40
2019-01-13T12:28:13.710Z,5.77
2019-01-13T12:30:43.190Z,6.20
2019-01-13T12:33:12.657Z,6.20
2019-01-13T12:35:42.140Z,6.80
2019-01-13T12:38:11.689Z,7.27
2019-01-13T12:40:41.152Z,8.13
2019-01-13T12:43:10.642Z,6.97
2019-01-13T12:45:40.143Z,6.47
2019-01-13T12:48:09.635Z,5.00
2019-01-13T12:50:39.115Z,5.60
2019-01-13T12:53:08.612Z,7.93
2019-01-13T12:55:38.082Z,6.70
2019-01-13T12:58:07.555Z,6.40
2019-01-13T13:00:37.059Z,6.37
2019-01-13T13:03:06.543Z,6.43
2019-01-13T13:05:36.006Z,6.57
2019-01-13T13:08:05.551Z,6.80
2019-01-13T13:10:40.327Z,6.77
2019-01-13T13:13:09.812Z,7.00
2019-01-13T13:15:39.321Z,8.90
2019-01-13T13:18:08.902Z,8.10
2019-01-13T13:20:38.373Z,7.53
2019-01-13T13:23:07.869Z,8.13
2019-01-13T13:25:37.349Z,10.00
2019-01-13T13:28:06.844Z,10.50
2019-01-13T13:30:36.367Z,9.00
2019-01-13T13:33:05.848Z,8.23
2019-01-13T13:35:39.577Z,7.60
2019-01-13T13:38:06.582Z,7.40
2019-01-13T13:40:36.262Z,6.73
2019-01-13T13:43:05.796Z,6.53
2019-01-13T13:45:35.377Z,6.93
2019-01-13T13:48:05.078Z,6.97
2019-01-13T13:50:34.551Z,6.70
2019-01-13T13:53:05.968Z,6.27
2019-01-13T13:55:35.473Z,7.67
2019-01-13T13:58:05.043Z,8.47
2019-01-13T14:00:34.546Z,8.07
2019-01-13T14:03:04.023Z,8.30
2019-01-13T14:05:33.502Z,9.27
2019-01-13T14:08:03.044Z,8.53
2019-01-13T14:10:36.509Z,8.47
2019-01-13T14:13:06.315Z,8.57
2019-01-13T14:15:35.772Z,9.30
2019-01-13T14:18:05.229Z,8.47
2019-01-13T14:20:34.674Z,9.53
2019-01-13T14:23:04.181Z,10.10
2019-01-13T14:25:33.665Z,10.27
2019-01-13T14:28:03.052Z,9.03
2019-01-13T14:30:32.546Z,9.00
2019-01-13T14:33:02.032Z,9.27
2019-01-13T14:35:31.481Z,8.70
2019-01-13T14:38:01.016Z,7.57
2019-01-13T14:40:30.446Z,9.00
2019-01-13T14:42:59.924Z,9.10
2019-01-13T14:45:29.427Z,9.33
2019-01-13T14:47:58.915Z,8.00
2019-01-13T14:50:30.140Z,10.93
2019-01-13T14:52:59.732Z,8.37
2019-01-13T14:55:29.221Z,8.90
2019-01-13T14:57:58.723Z,9.10
2019-01-13T15:00:30.194Z,9.83
2019-01-13T15:02:59.669Z,8.80
2019-01-13T15:05:29.144Z,9.30
2019-01-13T15:07:58.689Z,10.03
2019-01-13T15:10:28.213Z,11.77
2019-01-13T15:12:57.726Z,12.20
2019-01-13T15:15:27.255Z,12.40
2019-01-13T15:17:56.767Z,12.63
2019-01-13T15:20:26.275Z,11.57
2019-01-13T15:22:55.754Z,11.07
2019-01-13T15:25:28.177Z,10.17
2019-01-13T15:27:57.670Z,10.53
2019-01-13T15:30:32.901Z,9.50
2019-01-13T15:33:02.397Z,8.40
2019-01-13T15:35:31.883Z,9.50
2019-01-13T15:38:01.401Z,11.13
2019-01-13T15:40:30.901Z,10.93
2019-01-13T15:43:00.385Z,10.20
2019-01-13T15:45:29.849Z,10.73
2019-01-13T15:47:59.354Z,10.80
2019-01-13T15:50:30.143Z,11.30
2019-01-13T15:52:59.653Z,11.07
2019-01-13T15:55:29.215Z,9.87
2019-01-13T15:57:58.678Z,9.60
2019-01-13T16:00:33.356Z,10.40
2019-01-13T16:03:02.855Z,23.60
2019-01-13T16:05:32.367Z,21.87
2019-01-13T16:08:01.928Z,12.27
2019-01-13T16:10:31.538Z,10.33
2019-01-13T16:13:01.014Z,10.67
2019-01-13T16:15:34.397Z,10.80
2019-01-13T16:18:01.704Z,10.63
2019-01-13T16:20:34.552Z,9.90
2019-01-13T16:23:04.054Z,17.37
2019-01-13T16:25:33.560Z,14.90
2019-01-13T16:28:03.021Z,14.50
2019-01-13T16:30:33.490Z,11.83
2019-01-13T16:33:03.000Z,10.07
2019-01-13T16:35:32.498Z,10.40
2019-01-13T16:38:02.107Z,10.23
2019-01-13T16:40:31.713Z,11.33
2019-01-13T16:43:01.209Z,11.30
2019-01-13T16:45:30.774Z,15.00
2019-01-13T16:48:00.286Z,13.77
2019-01-13T16:50:29.805Z,11.67
2019-01-13T16:52:59.309Z,13.60
2019-01-13T16:55:28.783Z,13.40
2019-01-13T16:57:58.302Z,13.37
2019-01-13T17:00:30.789Z,10.23
2019-01-13T17:03:00.276Z,10.63
2019-01-13T17:05:30.920Z,11.07
2019-01-13T17:08:00.416Z,9.60
2019-01-13T17:10:29.915Z,10.20
2019-01-13T17:12:59.386Z,10.67
2019-01-13T17:15:31.181Z,11.53
2019-01-13T17:18:00.682Z,11.20
2019-01-13T17:20:30.381Z,12.13
2019-01-13T17:22:59.865Z,11.13
2019-01-13T17:25:29.318Z,20.80
2019-01-13T17:27:58.923Z,11.77
2019-01-13T17:30:33.807Z,11.83
2019-01-13T17:33:03.270Z,10.60
2019-01-13T17:35:32.768Z,11.37
2019-01-13T17:38:02.241Z,13.03
2019-01-13T17:40:31.724Z,17.20
2019-01-13T17:43:01.228Z,17.20
2019-01-13T17:45:31.588Z,12.23
2019-01-13T17:48:03.885Z,12.23
2019-01-13T17:50:33.386Z,12.23
2019-01-13T17:53:02.922Z,13.00
2019-01-13T17:55:32.405Z,13.60
2019-01-13T17:58:01.929Z,12.83
2019-01-13T18:00:44.910Z,13.30
2019-01-13T18:03:21.884Z,13.43
2019-01-13T18:05:51.308Z,17.10
2019-01-13T18:08:20.794Z,14.90
2019-01-13T18:10:50.270Z,16.57
2019-01-13T18:13:19.837Z,14.00
2019-01-13T18:15:49.360Z,13.30
2019-01-13T18:18:18.836Z,14.70
2019-01-13T18:20:48.332Z,13.53
2019-01-13T18:23:17.809Z,13.43
2019-01-13T18:25:47.289Z,13.43
2019-01-13T18:28:16.797Z,13.83
2019-01-13T18:30:46.261Z,12.80
2019-01-13T18:33:15.754Z,14.60
2019-01-13T18:35:45.262Z,14.40
2019-01-13T18:38:14.748Z,12.73
2019-01-13T18:40:44.211Z,12.70
2019-01-13T18:43:13.785Z,13.13
2019-01-13T18:45:43.365Z,11.87
2019-01-13T18:48:12.859Z,12.90
2019-01-13T18:50:42.383Z,12.93
2019-01-13T18:53:14.937Z,13.10
2019-01-13T18:55:44.419Z,11.77
2019-01-13T18:58:13.915Z,12.90
2019-01-13T19:00:43.382Z,13.47
2019-01-13T19:03:13.078Z,11.90
2019-01-13T19:05:42.574Z,12.23
2019-01-13T19:08:12.061Z,11.50
2019-01-13T19:10:51.701Z,11.67
2019-01-13T19:13:44.109Z,12.00
2019-01-13T19:16:18.469Z,15.33
2019-01-13T19:18:48.149Z,14.30
2019-01-13T19:21:17.736Z,13.37
2019-01-13T19:23:47.235Z,13.90
2019-01-13T19:26:16.715Z,12.43
2019-01-13T19:28:46.215Z,13.67
2019-01-13T19:31:16.056Z,14.20
2019-01-13T19:33:45.532Z,15.80
2019-01-13T19:36:15.001Z,14.33
2019-01-13T19:38:44.504Z,14.47
2019-01-13T19:41:13.973Z,14.73
2019-01-13T19:43:43.463Z,12.77
2019-01-13T19:46:12.958Z,12.27
2019-01-13T19:48:42.456Z,11.70
2019-01-13T19:51:11.938Z,12.80
2019-01-13T19:53:41.476Z,10.80
2019-01-13T19:56:10.899Z,8.83
2019-01-13T19:58:40.604Z,11.50
2019-01-13T20:01:10.199Z,13.00
2019-01-13T20:03:39.694Z,13.80
2019-01-13T20:06:09.359Z,11.93
2019-01-13T20:08:38.925Z,12.00
2019-01-13T20:11:08.404Z,14.70
2019-01-13T20:13:37.870Z,13.80
2019-01-13T20:16:07.374Z,14.27
2019-01-13T20:18:36.840Z,12.83
2019-01-13T20:21:06.314Z,13.27
2019-01-13T20:23:35.823Z,12.33
2019-01-13T20:26:05.315Z,12.37
2019-01-13T20:28:34.759Z,9.67
2019-01-13T20:31:04.474Z,9.60
2019-01-13T20:33:33.947Z,9.20
2019-01-13T20:36:03.466Z,9.27
2019-01-13T20:38:34.498Z,11.97
2019-01-13T20:41:04.216Z,9.50
2019-01-13T20:43:33.822Z,8.43
2019-01-13T20:46:03.374Z,11.63
2019-01-13T20:48:32.840Z,10.77
2019-01-13T20:51:02.387Z,9.20
2019-01-13T20:53:31.936Z,11.37
2019-01-13T20:56:01.392Z,14.13
2019-01-13T20:58:30.987Z,12.23
2019-01-13T21:01:00.486Z,20.70
2019-01-13T21:03:29.960Z,14.80
2019-01-13T21:05:59.432Z,12.10
2019-01-13T21:08:29.097Z,9.60
2019-01-13T21:10:58.568Z,9.00
2019-01-13T21:13:28.083Z,14.10
2019-01-13T21:15:57.606Z,12.83
2019-01-13T21:18:27.064Z,8.70
2019-01-13T21:20:56.534Z,8.40
2019-01-13T21:23:26.032Z,7.80
2019-01-13T21:25:55.739Z,8.07
2019-01-13T21:28:25.302Z,9.60
2019-01-13T21:30:54.809Z,9.10
2019-01-13T21:33:24.277Z,7.30
2019-01-13T21:35:53.757Z,8.03
2019-01-13T21:38:23.448Z,8.77
2019-01-13T21:40:52.914Z,8.77
2019-01-13T21:43:22.384Z,8.83
2019-01-13T21:45:51.875Z,8.20
2019-01-13T21:48:21.345Z,8.83
2019-01-13T21:50:50.821Z,8.37
2019-01-13T21:53:20.412Z,7.70
2019-01-13T21:55:49.877Z,8.13
2019-01-13T21:58:19.345Z,8.77
2019-01-13T22:00:48.853Z,8.60
2019-01-13T22:03:18.311Z,7.10
2019-01-13T22:05:47.767Z,8.20
2019-01-13T22:08:17.204Z,7.87
2019-01-13T22:10:46.680Z,7.60
2019-01-13T22:13:16.176Z,7.90
2019-01-13T22:15:45.652Z,8.07
2019-01-13T22:18:15.121Z,7.80
2019-01-13T22:20:44.588Z,8.60
2019-01-13T22:23:14.095Z,8.90
2019-01-13T22:25:43.593Z,11.60
2019-01-13T22:28:13.025Z,8.20
2019-01-13T22:30:42.735Z,7.80
2019-01-13T22:33:12.297Z,7.90
2019-01-13T22:35:47.966Z,7.20
2019-01-13T22:38:12.992Z,6.90
2019-01-13T22:40:42.466Z,7.60
2019-01-13T22:43:11.948Z,7.83
2019-01-13T22:45:41.448Z,6.73
2019-01-13T22:48:10.917Z,6.80
2019-01-13T22:50:40.396Z,7.80
2019-01-13T22:53:09.885Z,7.97
2019-01-13T22:55:39.354Z,8.27
2019-01-13T22:58:08.962Z,8.40
2019-01-13T23:00:50.276Z,8.60
2019-01-13T23:03:20.742Z,7.53
2019-01-13T23:05:55.580Z,8.10
2019-01-13T23:08:21.517Z,8.33
2019-01-13T23:10:50.992Z,7.97
2019-01-13T23:13:20.458Z,7.67
2019-01-13T23:15:49.954Z,7.80
2019-01-13T23:18:19.416Z,7.70
2019-01-13T23:20:48.921Z,8.90
2019-01-13T23:23:18.475Z,7.23
2019-01-13T23:25:47.937Z,8.47
2019-01-13T23:28:17.442Z,7.70
2019-01-13T23:30:46.911Z,8.37
2019-01-13T23:33:16.375Z,8.33
2019-01-13T23:35:45.867Z,8.87
2019-01-13T23:38:15.327Z,7.60
2019-01-13T23:40:44.827Z,7.00
2019-01-13T23:43:14.345Z,8.80
2019-01-13T23:45:43.822Z,7.83
2019-01-13T23:48:13.341Z,7.40
2019-01-13T23:50:42.826Z,8.53
2019-01-13T23:53:12.317Z,8.17
2019-01-13T23:55:41.816Z,7.00
2019-01-13T23:58:11.270Z,6.97
